Time;durP1;ratioP1;P1;durP2;ratioP2;P2;SDS_P1;SDS_P2;PMS_P1;PMS_P2;Temp;Humidity;BMP_temperature;BMP_pressure;BME280_temperature;BME280_humidity;BME280_pressure;Samples;Min_cycle;Max_cycle;Signal;HPM_P1;HPM_P2
2024/04/23 00:01:36;;;;;;;25.47;24.57;;;21.60;1.00;;;;;;2612799;47;20207;-72
2024/04/23 00:04:02;;;;;;;26.37;25.37;;;21.60;1.00;;;;;;2612901;54;20155;-71
2024/04/23 00:06:27;;;;;;;26.37;25.37;;;21.50;1.00;;;;;;2612362;54;20223;-71
2024/04/23 00:08:53;;;;;;;26.40;25.40;;;21.50;1.00;;;;;;2613669;47;20170;-72
2024/04/23 00:11:19;;;;;;;25.87;24.87;;;21.50;1.00;;;;;;2614008;54;20250;-71
2024/04/23 00:13:44;;;;;;;26.10;25.10;;;21.50;1.00;;;;;;2614159;54;20254;-71
2024/04/23 00:16:10;;;;;;;25.57;24.67;;;21.40;1.00;;;;;;2614605;54;20147;-71
2024/04/23 00:18:36;;;;;;;25.63;24.73;;;21.50;1.00;;;;;;2614853;54;20161;-72
2024/04/23 00:21:01;;;;;;;26.00;25.00;;;21.40;1.00;;;;;;2614153;54;20169;-71
2024/04/23 00:23:27;;;;;;;26.00;25.00;;;21.40;1.00;;;;;;2614685;54;20166;-71
2024/04/23 00:25:53;;;;;;;26.17;25.17;;;21.40;1.00;;;;;;2614365;54;20161;-71
2024/04/23 00:28:19;;;;;;;26.47;25.47;;;21.40;1.00;;;;;;2615236;54;20166;-71
2024/04/23 00:30:45;;;;;;;26.40;25.40;;;21.40;1.00;;;;;;2614426;54;20170;-71
2024/04/23 00:33:10;;;;;;;26.70;25.70;;;21.30;1.00;;;;;;2614721;39;20727;-71
2024/04/23 00:35:36;;;;;;;26.50;25.50;;;21.30;1.00;;;;;;2614841;47;20205;-71
2024/04/23 00:38:02;;;;;;;25.90;24.90;;;21.30;1.00;;;;;;2614904;39;20574;-71
2024/04/23 00:40:28;;;;;;;26.13;25.13;;;21.30;1.00;;;;;;2614824;54;20166;-71
2024/04/23 00:42:55;;;;;;;26.00;25.00;;;21.30;1.00;;;;;;2614474;54;20196;-71
2024/04/23 00:45:24;;;;;;;26.30;25.30;;;21.30;1.00;;;;;;2614677;39;20784;-71
2024/04/23 00:47:50;;;;;;;25.93;24.93;;;21.30;1.00;;;;;;2614631;54;20424;-66
2024/04/23 00:50:16;;;;;;;25.23;24.33;;;21.20;1.00;;;;;;2613348;39;20796;-66
2024/04/23 00:52:42;;;;;;;26.30;25.30;;;21.20;1.00;;;;;;2614432;39;20822;-66
2024/04/23 00:55:09;;;;;;;26.50;25.50;;;21.20;1.00;;;;;;2614007;54;20474;-66
2024/04/23 00:57:35;;;;;;;25.70;24.70;;;21.20;1.00;;;;;;2614470;54;20503;-66
2024/04/23 01:00:02;;;;;;;26.30;25.30;;;21.20;1.00;;;;;;2613646;54;20388;-65
2024/04/23 01:02:28;;;;;;;26.40;25.40;;;21.20;1.00;;;;;;2612511;47;20454;-65
2024/04/23 01:04:54;;;;;;;26.40;25.40;;;21.20;1.00;;;;;;2612190;47;20403;-65
2024/04/23 01:07:20;;;;;;;26.20;25.20;;;21.20;1.00;;;;;;2613588;54;20408;-78
2024/04/23 01:09:46;;;;;;;26.33;25.33;;;21.10;1.00;;;;;;2614874;54;20523;-78
2024/04/23 01:12:12;;;;;;;25.30;24.40;;;21.10;1.00;;;;;;2615173;39;20554;-78
2024/04/23 01:14:42;;;;;;;25.53;24.60;;;21.10;1.00;;;;;;2614455;54;20486;-78
2024/04/23 01:17:10;;;;;;;25.43;24.50;;;21.10;1.00;;;;;;2614274;54;20258;-78
2024/04/23 01:19:52;;;;;;;24.93;24.03;;;21.10;1.00;;;;;;2615166;54;20422;-78
2024/04/23 01:23:07;;;;;;;26.10;25.10;;;21.10;1.00;;;;;;2615252;54;20423;-78
2024/04/23 01:25:36;;;;;;;26.60;25.60;;;21.10;1.00;;;;;;2612252;54;20423;-78
2024/04/23 01:28:02;;;;;;;25.50;24.50;;;21.10;1.00;;;;;;2613451;39;20786;-78
2024/04/23 01:30:29;;;;;;;26.20;25.20;;;21.10;1.00;;;;;;2613432;54;20420;-78
2024/04/23 01:32:55;;;;;;;26.10;25.10;;;21.00;1.00;;;;;;2613458;54;20411;-78
2024/04/23 01:35:22;;;;;;;25.80;24.80;;;21.00;1.00;;;;;;2612635;54;20450;-78
2024/04/23 01:37:51;;;;;;;26.00;25.00;;;21.00;1.00;;;;;;2613559;39;20656;-78
2024/04/23 01:40:18;;;;;;;26.40;25.40;;;21.00;1.00;;;;;;2613791;54;20443;-78
2024/04/23 01:42:44;;;;;;;25.80;24.80;;;21.00;1.00;;;;;;2613347;54;20439;-78
2024/04/23 01:45:15;;;;;;;25.77;24.77;;;21.00;1.00;;;;;;2613799;39;20837;-78
2024/04/23 01:47:43;;;;;;;26.30;25.30;;;21.00;1.00;;;;;;2613530;54;20446;-78
2024/04/23 01:50:09;;;;;;;26.00;25.00;;;21.00;1.00;;;;;;2613404;54;20411;-77
2024/04/23 01:52:35;;;;;;;25.87;24.87;;;21.00;1.00;;;;;;2613592;47;20448;-78
2024/04/23 01:55:01;;;;;;;26.23;25.23;;;20.90;1.00;;;;;;2613006;47;20446;-78
2024/04/23 01:57:26;;;;;;;26.10;25.10;;;20.90;1.00;;;;;;2611853;47;20181;-68
2024/04/23 02:00:05;;;;;;;26.40;25.40;;;20.90;1.00;;;;;;2612487;47;20424;-68
2024/04/23 02:02:33;;;;;;;26.03;25.03;;;20.90;1.00;;;;;;2612091;54;20166;-68
2024/04/23 02:04:59;;;;;;;25.80;24.80;;;20.90;1.00;;;;;;2611632;54;20387;-68
2024/04/23 02:07:25;;;;;;;25.00;24.10;;;20.90;1.00;;;;;;2612973;54;20454;-66
2024/04/23 02:09:52;;;;;;;25.00;24.10;;;20.90;1.00;;;;;;2611660;54;20439;-66
2024/04/23 02:12:22;;;;;;;25.43;24.50;;;20.90;1.00;;;;;;2611764;54;20546;-66
2024/04/23 02:14:47;;;;;;;25.50;24.60;;;20.90;1.00;;;;;;2612041;47;20422;-66
2024/04/23 02:17:14;;;;;;;25.10;24.20;;;20.90;1.00;;;;;;2611578;54;20526;-66
2024/04/23 02:19:40;;;;;;;25.30;24.40;;;20.80;1.00;;;;;;2612254;54;20403;-67
2024/04/23 02:22:07;;;;;;;25.60;24.60;;;20.80;1.00;;;;;;2611600;54;20404;-67
2024/04/23 02:24:32;;;;;;;25.03;24.13;;;20.80;1.00;;;;;;2611457;49;20416;-66
2024/04/23 02:26:58;;;;;;;25.50;24.60;;;20.80;1.00;;;;;;2612072;39;20649;-66
2024/04/23 02:29:24;;;;;;;26.20;25.20;;;20.80;1.00;;;;;;2612184;54;20167;-66
2024/04/23 02:31:50;;;;;;;25.30;24.40;;;20.80;1.00;;;;;;2611689;54;20163;-66
2024/04/23 02:34:15;;;;;;;25.70;24.70;;;20.80;1.00;;;;;;2611586;54;20299;-65
2024/04/23 02:36:41;;;;;;;26.13;25.13;;;20.80;1.00;;;;;;2612143;54;20270;-66
2024/04/23 02:39:07;;;;;;;26.33;25.33;;;20.80;1.00;;;;;;2612443;54;20155;-66
2024/04/23 02:41:36;;;;;;;25.70;24.70;;;20.80;1.00;;;;;;2611881;47;20435;-66
2024/04/23 02:44:05;;;;;;;25.73;24.73;;;20.80;1.00;;;;;;2611889;54;20190;-66
2024/04/23 02:46:31;;;;;;;26.23;25.23;;;20.80;1.00;;;;;;2611832;54;20545;-66
2024/04/23 02:48:57;;;;;;;25.70;24.80;;;20.80;1.00;;;;;;2611486;54;20415;-66
2024/04/23 02:51:22;;;;;;;26.00;25.10;;;20.80;1.00;;;;;;2612073;54;20194;-67
2024/04/23 02:53:48;;;;;;;26.77;25.77;;;20.80;1.00;;;;;;2611928;54;20190;-66
2024/04/23 02:56:14;;;;;;;26.80;25.80;;;20.90;1.00;;;;;;2612121;54;20266;-66
2024/04/23 02:58:39;;;;;;;26.53;25.53;;;20.90;1.00;;;;;;2612573;54;20254;-66
2024/04/23 03:01:05;;;;;;;26.70;25.70;;;20.90;1.00;;;;;;2612533;54;20186;-66
2024/04/23 03:03:31;;;;;;;26.60;25.60;;;20.90;1.00;;;;;;2612024;54;20218;-65
2024/04/23 03:05:56;;;;;;;26.07;25.07;;;20.90;1.00;;;;;;2612285;54;20161;-68
2024/04/23 03:08:22;;;;;;;27.10;26.10;;;20.90;1.00;;;;;;2612159;54;20167;-68
2024/04/23 03:10:48;;;;;;;26.57;25.57;;;20.90;1.00;;;;;;2612239;47;20270;-68
2024/04/23 03:13:14;;;;;;;26.90;25.90;;;20.90;1.00;;;;;;2612118;54;20175;-66
2024/04/23 03:15:39;;;;;;;26.93;25.93;;;20.90;1.00;;;;;;2612084;54;20147;-66
2024/04/23 03:18:05;;;;;;;27.50;26.50;;;20.90;1.00;;;;;;2613127;39;20556;-65
2024/04/23 03:20:31;;;;;;;26.57;25.57;;;20.90;1.00;;;;;;2611813;47;20675;-64
2024/04/23 03:22:57;;;;;;;27.10;26.10;;;20.90;1.00;;;;;;2612031;54;20166;-65
2024/04/23 03:25:22;;;;;;;26.80;25.80;;;20.90;1.00;;;;;;2611465;54;20227;-67
2024/04/23 03:27:48;;;;;;;27.23;26.23;;;20.90;1.00;;;;;;2612067;54;20171;-68
2024/04/23 03:30:14;;;;;;;26.70;25.70;;;20.90;1.00;;;;;;2611878;48;21115;-67
2024/04/23 03:32:40;;;;;;;26.93;25.93;;;20.90;1.00;;;;;;2611867;54;20189;-67
2024/04/23 03:35:06;;;;;;;27.27;26.27;;;20.90;1.00;;;;;;2612529;39;20740;-68
2024/04/23 03:37:31;;;;;;;26.97;25.97;;;20.80;1.00;;;;;;2612033;54;20177;-68
2024/04/23 03:39:58;;;;;;;27.10;26.10;;;20.90;1.00;;;;;;2612535;54;20254;-68
2024/04/23 03:42:23;;;;;;;26.60;25.60;;;20.90;1.00;;;;;;2612106;54;20418;-68
2024/04/23 03:44:49;;;;;;;27.20;26.20;;;20.90;1.00;;;;;;2611910;47;20507;-67
2024/04/23 03:47:15;;;;;;;27.30;26.30;;;20.90;1.00;;;;;;2612048;54;20171;-67
2024/04/23 03:49:41;;;;;;;27.43;26.43;;;20.80;1.00;;;;;;2611956;54;20415;-67
2024/04/23 03:52:08;;;;;;;27.20;26.20;;;20.80;1.00;;;;;;2612023;39;20915;-67
2024/04/23 03:54:34;;;;;;;27.00;26.00;;;20.80;1.00;;;;;;2611771;54;20147;-67
2024/04/23 03:57:00;;;;;;;26.93;25.93;;;20.80;1.00;;;;;;2610560;54;20432;-67
2024/04/23 03:59:26;;;;;;;27.57;26.57;;;20.80;1.00;;;;;;2610967;47;20434;-68
2024/04/23 04:06:03;;;;;;;28.20;27.10;;;20.80;1.00;;;;;;2611758;54;20753;-68
2024/04/23 04:07:22;;;;;;;27.43;26.43;;;20.80;1.00;;;;;;2612500;54;20427;-67
2024/04/23 04:09:47;;;;;;;27.80;26.80;;;20.90;1.00;;;;;;2611380;54;20423;-67
2024/04/23 04:12:13;;;;;;;28.23;27.13;;;20.90;1.00;;;;;;2611924;54;20446;-67
2024/04/23 04:14:39;;;;;;;28.40;27.30;;;20.90;1.00;;;;;;2612115;54;20177;-67
2024/04/23 04:17:05;;;;;;;28.20;27.10;;;20.90;1.00;;;;;;2611811;54;20167;-68
2024/04/23 04:19:30;;;;;;;28.10;27.10;;;20.80;1.00;;;;;;2612054;54;20258;-67
2024/04/23 04:21:57;;;;;;;27.93;26.93;;;20.90;1.00;;;;;;2611581;54;20163;-67
2024/04/23 04:24:23;;;;;;;28.50;27.40;;;20.90;1.00;;;;;;2611623;54;21075;-67
2024/04/23 04:26:49;;;;;;;27.70;26.70;;;20.90;1.00;;;;;;2612879;54;20410;-81
2024/04/23 04:29:14;;;;;;;28.10;27.00;;;20.90;1.00;;;;;;2613209;54;20531;-79
2024/04/23 04:31:40;;;;;;;27.77;26.77;;;20.90;1.00;;;;;;2613659;54;20197;-79
2024/04/23 04:34:06;;;;;;;27.40;26.40;;;20.90;1.00;;;;;;2613722;54;20155;-79
2024/04/23 04:36:32;;;;;;;27.60;26.60;;;20.90;1.00;;;;;;2612938;54;20155;-66
2024/04/23 04:38:57;;;;;;;27.30;26.30;;;20.90;1.00;;;;;;2612788;54;20187;-66
2024/04/23 04:41:23;;;;;;;28.20;27.17;;;20.90;1.00;;;;;;2612307;54;20198;-65
2024/04/23 04:43:49;;;;;;;28.70;27.60;;;20.90;1.00;;;;;;2612123;54;20171;-66
2024/04/23 04:46:15;;;;;;;27.53;26.53;;;20.80;1.00;;;;;;2612319;54;20430;-66
2024/04/23 04:48:41;;;;;;;28.10;27.07;;;20.80;1.00;;;;;;2612400;54;20258;-64
2024/04/23 04:51:06;;;;;;;28.10;27.03;;;20.80;1.00;;;;;;2612745;50;20170;-65
2024/04/23 04:53:32;;;;;;;26.90;25.90;;;20.80;1.00;;;;;;2612797;54;20174;-65
2024/04/23 04:55:58;;;;;;;26.60;25.60;;;20.80;1.00;;;;;;2612311;54;20162;-65
2024/04/23 04:58:24;;;;;;;27.77;26.77;;;20.80;1.00;;;;;;2611985;54;20427;-66
2024/04/23 05:00:51;;;;;;;26.30;25.37;;;20.90;1.00;;;;;;2612336;54;20171;-66
2024/04/23 05:03:17;;;;;;;26.60;25.70;;;20.90;1.00;;;;;;2612617;54;20710;-65
2024/04/23 05:05:42;;;;;;;26.03;25.13;;;20.90;1.00;;;;;;2612304;54;20416;-65
2024/04/23 05:08:08;;;;;;;26.70;25.70;;;20.90;1.00;;;;;;2612444;54;20165;-66
2024/04/23 05:10:35;;;;;;;25.40;24.50;;;20.90;1.00;;;;;;2611558;54;20424;-66
2024/04/23 05:13:00;;;;;;;24.97;24.07;;;20.90;1.00;;;;;;2612810;39;20653;-68
2024/04/23 05:15:26;;;;;;;25.70;24.70;;;20.90;1.00;;;;;;2611243;54;20419;-69
2024/04/23 05:17:52;;;;;;;25.97;25.00;;;20.90;1.00;;;;;;2612356;54;20154;-68
2024/04/23 05:20:18;;;;;;;26.20;25.20;;;21.00;1.00;;;;;;2613492;54;20218;-66
2024/04/23 05:22:43;;;;;;;27.20;26.20;;;21.20;1.00;;;;;;2613879;54;20512;-65
2024/04/23 05:25:09;;;;;;;27.30;26.20;;;21.40;1.00;;;;;;2614073;54;20151;-65
2024/04/23 05:27:35;;;;;;;27.40;26.40;;;21.60;1.00;;;;;;2612758;54;20657;-69
2024/04/23 05:30:00;;;;;;;26.97;25.97;;;21.70;1.00;;;;;;2614552;47;20173;-70
2024/04/23 05:35:13;;;;;;;27.20;26.20;;;21.80;1.00;;;;;;2613934;54;20153;-74
2024/04/23 05:37:39;;;;;;;27.83;26.73;;;21.90;1.00;;;;;;2613670;54;20523;-65
2024/04/23 05:40:08;;;;;;;27.63;26.63;;;21.90;1.00;;;;;;2613414;54;20426;-67
2024/04/23 05:42:34;;;;;;;27.90;26.80;;;22.00;1.00;;;;;;2612903;54;20415;-66
2024/04/23 05:45:00;;;;;;;28.90;27.80;;;22.00;1.00;;;;;;2614189;54;20506;-67
2024/04/23 05:47:26;;;;;;;26.27;25.27;;;22.00;1.00;;;;;;2614221;47;20182;-64
2024/04/23 05:50:29;;;;;;;29.33;28.23;;;22.10;1.00;;;;;;2614177;39;20975;-66
2024/04/23 05:53:32;;;;;;;29.50;28.40;;;22.20;1.00;;;;;;2614254;39;20611;-66
2024/04/23 05:55:58;;;;;;;30.50;29.40;;;22.30;1.00;;;;;;2613971;54;20947;-67
2024/04/23 05:58:24;;;;;;;30.10;29.00;;;22.40;1.00;;;;;;2612668;54;20511;-64
2024/04/23 06:00:49;;;;;;;29.67;28.57;;;22.40;1.00;;;;;;2611962;54;20162;-66
2024/04/23 06:03:15;;;;;;;29.00;28.00;;;22.50;1.00;;;;;;2613790;54;20201;-67
2024/04/23 06:05:41;;;;;;;30.10;29.00;;;22.50;1.00;;;;;;2613435;54;20246;-67
2024/04/23 06:08:07;;;;;;;27.70;26.70;;;22.60;1.00;;;;;;2612460;54;20147;-66
2024/04/23 06:10:32;;;;;;;27.40;26.40;;;22.50;1.00;;;;;;2611144;54;20246;-65
2024/04/23 06:12:58;;;;;;;27.73;26.73;;;22.30;1.00;;;;;;2613264;54;20404;-65
2024/04/23 06:15:25;;;;;;;27.83;26.83;;;22.10;1.00;;;;;;2612771;54;20150;-67
2024/04/23 06:17:50;;;;;;;26.87;25.93;;;21.90;1.00;;;;;;2611975;47;20167;-66
2024/04/23 06:20:16;;;;;;;26.60;25.70;;;21.80;1.00;;;;;;2612530;54;20444;-66
2024/04/23 06:22:42;;;;;;;27.67;26.67;;;21.70;1.00;;;;;;2612608;47;20178;-66
2024/04/23 06:25:10;;;;;;;26.90;26.00;;;21.60;1.00;;;;;;2610900;47;20462;-66
2024/04/23 06:27:37;;;;;;;27.30;26.30;;;21.50;1.00;;;;;;2612196;54;20423;-65
2024/04/23 06:30:16;;;;;;;27.00;26.00;;;21.50;1.00;;;;;;2613038;54;20464;-66
2024/04/23 06:32:42;;;;;;;26.20;25.30;;;21.50;1.00;;;;;;2611912;54;20516;-66
2024/04/23 06:35:08;;;;;;;26.03;25.13;;;21.40;1.00;;;;;;2613442;54;20964;-66
2024/04/23 06:37:35;;;;;;;26.30;25.40;;;21.40;1.00;;;;;;2612631;54;20165;-72
2024/04/23 06:40:06;;;;;;;27.30;26.30;;;21.40;1.00;;;;;;2612562;54;20410;-73
2024/04/23 06:42:32;;;;;;;27.50;26.50;;;21.40;1.00;;;;;;2613159;54;20407;-73
2024/04/23 06:44:58;;;;;;;27.13;26.23;;;21.40;1.00;;;;;;2612959;54;20920;-73
2024/04/23 06:47:24;;;;;;;26.63;25.63;;;21.40;1.00;;;;;;2613500;54;20397;-72
2024/04/23 06:49:50;;;;;;;26.60;25.70;;;21.40;1.00;;;;;;2612450;54;20289;-71
2024/04/23 06:52:17;;;;;;;26.90;26.00;;;21.30;1.00;;;;;;2612789;47;20447;-71
2024/04/23 06:54:43;;;;;;;27.47;26.47;;;21.40;1.00;;;;;;2612732;54;20408;-71
2024/04/23 06:57:09;;;;;;;28.47;27.47;;;21.30;1.00;;;;;;2612373;54;20411;-71
2024/04/23 06:59:35;;;;;;;27.10;26.10;;;21.30;1.00;;;;;;2612208;47;20527;-72
2024/04/23 07:02:01;;;;;;;26.30;25.40;;;21.30;1.00;;;;;;2610706;54;20194;-71
2024/04/23 07:04:26;;;;;;;26.30;25.40;;;21.30;1.00;;;;;;2611439;54;20290;-71
2024/04/23 07:06:53;;;;;;;27.30;26.30;;;21.30;1.00;;;;;;2612368;47;20146;-72
2024/04/23 07:09:20;;;;;;;26.30;25.40;;;21.30;1.00;;;;;;2611825;54;20194;-72
2024/04/23 07:11:46;;;;;;;27.10;26.10;;;21.30;1.00;;;;;;2610716;54;20400;-71
2024/04/23 07:14:12;;;;;;;25.97;25.07;;;21.30;1.00;;;;;;2611251;47;21067;-71
2024/04/23 07:16:38;;;;;;;26.70;25.80;;;21.30;1.00;;;;;;2611663;54;20419;-71
2024/04/23 07:19:04;;;;;;;27.80;26.80;;;21.30;1.00;;;;;;2611793;54;20426;-71
2024/04/23 07:21:30;;;;;;;27.20;26.20;;;21.40;1.00;;;;;;2613171;54;20158;-71
2024/04/23 07:23:56;;;;;;;27.60;26.60;;;21.40;1.00;;;;;;2613024;54;20416;-75
2024/04/23 07:26:24;;;;;;;28.10;27.10;;;21.50;1.00;;;;;;2613074;54;20917;-71
2024/04/23 07:28:49;;;;;;;29.23;28.13;;;21.70;1.00;;;;;;2612732;54;20683;-72
2024/04/23 07:31:15;;;;;;;27.60;26.60;;;21.90;1.00;;;;;;2611361;47;20434;-72
2024/04/23 07:33:41;;;;;;;28.53;27.50;;;22.20;1.00;;;;;;2612323;54;20676;-72
2024/04/23 07:36:10;;;;;;;27.03;26.03;;;22.40;1.00;;;;;;2612728;54;20197;-71
2024/04/23 07:38:35;;;;;;;27.57;26.57;;;22.60;1.00;;;;;;2613030;47;20163;-71
2024/04/23 07:41:01;;;;;;;26.77;25.87;;;22.80;1.00;;;;;;2612813;54;20411;-71
2024/04/23 07:43:27;;;;;;;27.43;26.43;;;23.10;1.00;;;;;;2612817;54;20146;-71
2024/04/23 07:45:53;;;;;;;28.40;27.40;;;23.30;1.00;;;;;;2613186;54;21015;-70
2024/04/23 07:48:19;;;;;;;27.03;26.13;;;23.40;1.00;;;;;;2613755;54;20188;-70
2024/04/23 07:50:45;;;;;;;27.37;26.37;;;23.70;1.00;;;;;;2613064;54;20149;-70
2024/04/23 07:53:10;;;;;;;26.63;25.63;;;23.90;1.00;;;;;;2613136;47;20459;-68
2024/04/23 07:55:36;;;;;;;25.67;24.77;;;24.10;1.00;;;;;;2612953;54;20167;-69
2024/04/23 07:58:02;;;;;;;27.47;26.47;;;24.20;1.00;;;;;;2612888;54;20182;-71
2024/04/23 08:00:30;;;;;;;25.73;24.83;;;24.30;1.00;;;;;;2613511;54;20173;-71
2024/04/23 08:02:57;;;;;;;26.23;25.33;;;24.50;1.00;;;;;;2613002;54;20166;-71
2024/04/23 08:05:23;;;;;;;25.70;24.80;;;24.60;1.00;;;;;;2613547;54;20425;-71
2024/04/23 08:07:49;;;;;;;25.83;24.93;;;24.60;1.00;;;;;;2613472;54;20430;-62
2024/04/23 08:10:18;;;;;;;26.00;25.10;;;24.60;1.00;;;;;;2613736;54;21247;-62
2024/04/23 08:12:45;;;;;;;25.80;24.90;;;24.60;1.00;;;;;;2614817;31;20867;-63
2024/04/23 08:15:11;;;;;;;25.87;24.97;;;24.60;1.00;;;;;;2613887;47;20419;-63
2024/04/23 08:17:37;;;;;;;26.13;25.23;;;24.60;1.00;;;;;;2614078;54;20439;-62
2024/04/23 08:20:03;;;;;;;26.00;25.10;;;24.50;1.00;;;;;;2613890;47;20415;-63
2024/04/23 08:22:29;;;;;;;26.00;25.10;;;24.50;1.00;;;;;;2613585;54;20474;-62
2024/04/23 08:24:55;;;;;;;26.93;25.93;;;24.50;1.00;;;;;;2613616;39;20705;-61
2024/04/23 08:27:20;;;;;;;27.20;26.20;;;24.40;1.00;;;;;;2613846;54;20640;-62
2024/04/23 08:29:46;;;;;;;26.53;25.63;;;24.30;1.00;;;;;;2613756;39;20555;-63
2024/04/23 08:32:13;;;;;;;26.87;25.87;;;24.30;1.00;;;;;;2612525;47;20165;-63
2024/04/23 08:34:39;;;;;;;28.00;27.00;;;24.20;1.00;;;;;;2613231;54;20242;-63
2024/04/23 08:37:09;;;;;;;28.13;27.13;;;24.20;1.00;;;;;;2613287;54;20937;-62
2024/04/23 08:39:34;;;;;;;26.70;25.80;;;24.30;1.00;;;;;;2614400;54;20234;-62
2024/04/23 08:42:11;;;;;;;27.73;26.73;;;24.50;1.00;;;;;;2613507;54;20424;-63
2024/04/23 08:44:40;;;;;;;27.83;26.83;;;24.70;1.00;;;;;;2613587;54;20147;-63
2024/04/23 08:47:07;;;;;;;26.97;25.97;;;25.10;1.00;;;;;;2614212;54;20427;-63
2024/04/23 08:49:34;;;;;;;27.00;26.10;;;25.40;1.00;;;;;;2614073;39;20816;-63
2024/04/23 08:52:00;;;;;;;28.00;27.00;;;25.60;1.00;;;;;;2614368;54;20509;-62
2024/04/23 08:54:26;;;;;;;27.90;26.90;;;25.90;1.00;;;;;;2614233;39;21081;-62
2024/04/23 08:56:52;;;;;;;27.30;26.30;;;26.10;1.00;;;;;;2613864;54;20166;-63
2024/04/23 08:59:18;;;;;;;26.13;25.23;;;26.30;1.00;;;;;;2614387;39;20789;-62
2024/04/23 09:01:57;;;;;;;28.30;27.30;;;26.50;1.00;;;;;;2612237;54;20407;-62
2024/04/23 09:04:23;;;;;;;26.27;25.37;;;26.70;1.00;;;;;;2613786;54;20411;-62
2024/04/23 09:06:50;;;;;;;27.70;26.70;;;26.90;1.00;;;;;;2614538;39;20851;-63
2024/04/23 09:09:19;;;;;;;28.37;27.37;;;27.00;1.00;;;;;;2613649;47;20424;-63
2024/04/23 09:11:45;;;;;;;28.90;27.47;;;27.10;1.00;;;;;;2613258;54;21111;-62
2024/04/23 09:14:12;;;;;;;28.37;27.37;;;27.20;1.00;;;;;;2613480;54;20427;-62
2024/04/23 09:16:37;;;;;;;27.33;26.33;;;27.20;1.00;;;;;;2612828;54;20431;-62
2024/04/23 09:19:03;;;;;;;28.40;27.40;;;27.10;1.00;;;;;;2614064;54;20410;-62
2024/04/23 09:21:29;;;;;;;28.13;27.13;;;27.10;1.00;;;;;;2614019;54;20203;-63
2024/04/23 09:24:01;;;;;;;28.70;27.70;;;27.00;1.00;;;;;;2613650;54;20201;-62
2024/04/23 09:26:27;;;;;;;28.80;27.80;;;26.90;1.00;;;;;;2613172;54;20424;-63
2024/04/23 09:28:53;;;;;;;27.60;26.60;;;26.80;1.00;;;;;;2613860;54;20434;-63
2024/04/23 09:31:22;;;;;;;27.43;26.43;;;26.80;1.00;;;;;;2612516;47;20435;-63
2024/04/23 09:33:55;;;;;;;27.93;26.93;;;26.60;1.00;;;;;;2613876;54;20135;-63
2024/04/23 09:36:26;;;;;;;27.40;26.50;;;26.60;1.00;;;;;;2613489;54;20411;-63
2024/04/23 09:38:56;;;;;;;28.70;27.70;;;26.60;1.00;;;;;;2612601;54;20524;-63
2024/04/23 09:41:26;;;;;;;28.30;27.30;;;26.70;1.00;;;;;;2613273;54;20419;-63
2024/04/23 09:43:57;;;;;;;28.30;27.30;;;26.80;1.00;;;;;;2613199;47;20433;-63
2024/04/23 09:46:23;;;;;;;28.93;27.93;;;27.00;1.00;;;;;;2614232;54;20508;-63
2024/04/23 09:48:53;;;;;;;27.60;26.70;;;27.10;1.00;;;;;;2613634;54;20486;-63
2024/04/23 09:51:20;;;;;;;27.80;26.80;;;27.30;1.00;;;;;;2613144;54;20434;-63
2024/04/23 09:53:47;;;;;;;27.83;26.83;;;27.40;1.00;;;;;;2613647;54;20443;-64
2024/04/23 09:56:18;;;;;;;29.50;28.47;;;27.50;1.00;;;;;;2612597;54;20443;-63
2024/04/23 09:58:45;;;;;;;29.80;28.70;;;27.40;1.00;;;;;;2613600;54;20983;-63
2024/04/23 10:01:12;;;;;;;28.73;27.73;;;27.40;1.00;;;;;;2612411;54;20509;-63
2024/04/23 10:03:43;;;;;;;31.50;30.20;;;27.40;1.00;;;;;;2611394;54;20447;-63
2024/04/23 10:06:28;;;;;;;30.03;28.93;;;27.50;1.00;;;;;;2613623;47;20412;-67
2024/04/23 10:09:07;;;;;;;30.13;29.03;;;27.70;1.00;;;;;;2613175;39;21066;-67
2024/04/23 10:11:40;;;;;;;31.73;30.53;;;27.80;1.00;;;;;;2613082;54;20478;-66
2024/04/23 10:14:42;;;;;;;28.57;27.57;;;27.90;1.00;;;;;;2613841;54;20511;-66
2024/04/23 10:17:16;;;;;;;27.90;26.90;;;28.00;1.00;;;;;;2612863;54;20415;-68
2024/04/23 10:19:45;;;;;;;29.87;28.77;;;28.10;1.00;;;;;;2613015;54;20404;-68
2024/04/23 10:22:12;;;;;;;34.17;32.73;;;28.10;1.00;;;;;;2613905;54;20392;-68
2024/04/23 10:24:38;;;;;;;28.43;27.43;;;28.20;1.00;;;;;;2613430;54;20535;-69
2024/04/23 10:27:07;;;;;;;34.07;32.50;;;28.40;1.00;;;;;;2613536;54;20412;-72
2024/04/23 10:29:33;;;;;;;28.17;27.17;;;28.60;1.00;;;;;;2613197;51;20418;-71
2024/04/23 10:32:00;;;;;;;28.87;27.87;;;28.70;1.00;;;;;;2613706;54;20436;-71
2024/04/23 10:34:29;;;;;;;31.60;30.17;;;28.80;1.00;;;;;;2613303;54;20149;-72
2024/04/23 10:36:59;;;;;;;27.90;26.90;;;28.90;1.00;;;;;;2613390;54;21019;-71
2024/04/23 10:39:27;;;;;;;31.27;30.07;;;28.90;1.00;;;;;;2613217;54;20976;-72
2024/04/23 10:41:56;;;;;;;27.83;26.83;;;28.80;1.00;;;;;;2613272;54;20415;-72
2024/04/23 10:44:23;;;;;;;27.30;26.30;;;28.70;1.00;;;;;;2613574;39;20839;-71
2024/04/23 10:46:49;;;;;;;28.77;27.77;;;28.50;1.00;;;;;;2613722;54;20952;-71
2024/04/23 10:49:19;;;;;;;29.23;28.13;;;28.30;1.00;;;;;;2613808;54;20412;-71
2024/04/23 10:51:48;;;;;;;27.90;26.90;;;28.20;1.00;;;;;;2614050;54;20218;-71
2024/04/23 10:54:15;;;;;;;29.27;28.07;;;28.10;1.00;;;;;;2613720;39;20815;-70
2024/04/23 10:56:41;;;;;;;27.50;26.50;;;28.20;1.00;;;;;;2614255;31;20850;-69
2024/04/23 10:59:16;;;;;;;34.97;33.63;;;28.30;1.00;;;;;;2613200;47;20419;-72
2024/04/23 11:01:57;;;;;;;27.83;26.83;;;28.60;1.00;;;;;;2611545;54;20446;-72
2024/04/23 11:04:43;;;;;;;31.27;29.97;;;29.00;1.00;;;;;;2614055;54;20391;-71
2024/04/23 11:07:10;;;;;;;27.47;26.47;;;29.20;1.00;;;;;;2614307;39;20773;-72
2024/04/23 11:09:44;;;;;;;31.10;29.53;;;29.40;1.00;;;;;;2612700;54;20415;-71
2024/04/23 11:12:23;;;;;;;30.00;28.90;;;29.40;1.00;;;;;;2613157;54;20428;-73
2024/04/23 11:14:49;;;;;;;29.67;28.57;;;29.50;1.00;;;;;;2614066;31;20882;-71
2024/04/23 11:17:16;;;;;;;32.70;31.30;;;29.40;1.00;;;;;;2613785;54;20435;-68
2024/04/23 11:19:47;;;;;;;29.50;28.40;;;29.30;1.00;;;;;;2613283;54;20466;-68
2024/04/23 11:22:15;;;;;;;28.90;27.90;;;29.20;1.00;;;;;;2612747;47;20458;-69
2024/04/23 11:24:52;;;;;;;28.20;27.20;;;29.20;1.00;;;;;;2612210;54;20411;-68
2024/04/23 11:27:19;;;;;;;27.67;26.67;;;29.20;1.00;;;;;;2612955;54;20502;-63
2024/04/23 11:29:46;;;;;;;28.37;27.37;;;29.30;1.00;;;;;;2612782;54;20423;-63
2024/04/23 11:32:13;;;;;;;29.00;27.90;;;29.50;1.00;;;;;;2612130;51;20447;-63
2024/04/23 11:34:43;;;;;;;27.00;26.07;;;29.70;1.00;;;;;;2612745;54;20416;-63
2024/04/23 11:37:09;;;;;;;29.73;28.47;;;29.90;1.00;;;;;;2613962;54;20457;-67
2024/04/23 11:39:35;;;;;;;29.80;28.70;;;30.10;1.00;;;;;;2613132;54;21282;-68
2024/04/23 11:42:01;;;;;;;28.67;27.57;;;30.20;1.00;;;;;;2613686;54;20446;-67
2024/04/23 11:44:30;;;;;;;27.97;26.97;;;30.20;1.00;;;;;;2613394;54;20422;-68
2024/04/23 11:46:59;;;;;;;27.00;26.00;;;30.20;1.00;;;;;;2613355;39;20838;-68
2024/04/23 11:49:25;;;;;;;27.27;26.27;;;30.10;1.00;;;;;;2613295;54;20423;-67
2024/04/23 11:51:53;;;;;;;28.40;27.40;;;30.00;1.00;;;;;;2613385;54;20506;-67
2024/04/23 11:54:26;;;;;;;28.30;27.30;;;29.90;1.00;;;;;;2614094;54;20425;-66
2024/04/23 11:56:52;;;;;;;28.70;27.40;;;29.80;1.00;;;;;;2612466;54;21387;-67
2024/04/23 11:59:21;;;;;;;28.70;27.60;;;29.90;1.00;;;;;;2613685;54;20435;-67
2024/04/23 12:01:48;;;;;;;29.40;28.30;;;30.00;1.00;;;;;;2612994;54;20181;-67
2024/04/23 12:04:16;;;;;;;27.83;26.83;;;30.10;1.00;;;;;;2614240;54;20419;-68
2024/04/23 12:06:44;;;;;;;27.60;26.60;;;30.30;1.00;;;;;;2612918;47;20423;-68
2024/04/23 12:09:14;;;;;;;28.10;27.10;;;30.20;1.00;;;;;;2613527;51;20454;-66
2024/04/23 12:11:44;;;;;;;29.50;28.30;;;30.10;1.00;;;;;;2613546;48;20511;-67
2024/04/23 12:14:13;;;;;;;28.60;27.60;;;30.00;1.00;;;;;;2614563;39;20757;-67
2024/04/23 12:16:42;;;;;;;27.30;26.30;;;29.80;1.00;;;;;;2613303;54;20812;-67
2024/04/23 12:19:08;;;;;;;27.70;26.70;;;29.60;1.00;;;;;;2614297;54;20864;-68
2024/04/23 12:21:35;;;;;;;28.07;27.07;;;29.50;1.00;;;;;;2613578;47;20926;-67
2024/04/23 12:24:01;;;;;;;28.20;27.10;;;29.40;1.00;;;;;;2613576;54;20422;-68
2024/04/23 12:26:27;;;;;;;29.23;28.13;;;29.20;1.00;;;;;;2613497;54;20427;-66
2024/04/23 12:28:55;;;;;;;27.53;26.53;;;29.10;1.00;;;;;;2613955;54;20428;-67
2024/04/23 12:31:21;;;;;;;26.20;25.30;;;28.90;1.00;;;;;;2613666;47;20172;-67
2024/04/23 12:33:57;;;;;;;27.03;26.03;;;28.80;1.00;;;;;;2614490;31;20866;-66
2024/04/23 12:36:23;;;;;;;27.30;26.30;;;28.60;1.00;;;;;;2614026;54;20143;-69
2024/04/23 12:38:49;;;;;;;28.00;27.00;;;28.40;1.00;;;;;;2614050;54;20400;-68
2024/04/23 12:41:19;;;;;;;28.23;27.20;;;28.30;1.00;;;;;;2613781;54;20403;-69
2024/04/23 12:43:46;;;;;;;32.70;31.30;;;28.10;1.00;;;;;;2614286;31;20873;-68